createdAt,value
2022-10-23T00:01:51.348Z,38.60
2022-10-23T00:04:21.043Z,44.50
2022-10-23T00:06:49.166Z,40.57
2022-10-23T00:09:18.432Z,37.43
2022-10-23T00:11:48.071Z,37.37
2022-10-23T00:14:16.773Z,39.43
2022-10-23T00:16:44.274Z,45.27
2022-10-23T00:19:11.806Z,42.87
2022-10-23T00:21:39.614Z,40.97
2022-10-23T00:26:38.538Z,40.37
2022-10-23T00:29:06.024Z,42.60
2022-10-23T00:31:33.628Z,40.13
2022-10-23T00:34:01.366Z,38.73
2022-10-23T00:36:29.053Z,48.20
2022-10-23T00:38:56.632Z,42.40
2022-10-23T00:41:28.949Z,50.37
2022-10-23T00:44:35.694Z,48.80
2022-10-23T00:47:03.071Z,40.87
2022-10-23T00:49:42.777Z,48.40
2022-10-23T00:52:28.251Z,47.00
2022-10-23T00:54:55.935Z,47.25
2022-10-23T00:57:23.461Z,46.10
2022-10-23T00:59:51.488Z,39.03
2022-10-23T01:02:18.985Z,44.60
2022-10-23T01:04:46.536Z,45.67
2022-10-23T01:07:37.040Z,41.00
2022-10-23T01:10:31.770Z,44.97
2022-10-23T01:13:38.609Z,47.53
2022-10-23T01:16:34.088Z,45.70
2022-10-23T01:19:28.115Z,46.17
2022-10-23T01:22:11.913Z,53.57
2022-10-23T01:24:56.258Z,49.67
2022-10-23T01:27:32.629Z,47.67
2022-10-23T01:30:24.006Z,51.87
2022-10-23T01:33:16.313Z,56.80
2022-10-23T01:35:52.713Z,52.83
2022-10-23T01:38:42.711Z,49.10
2022-10-23T01:41:16.730Z,50.73
2022-10-23T01:43:54.184Z,63.77
2022-10-23T01:46:23.848Z,50.33
2022-10-23T01:48:55.023Z,58.00
2022-10-23T01:51:26.726Z,59.67
2022-10-23T01:54:00.536Z,65.73
2022-10-23T01:56:32.143Z,64.60
2022-10-23T01:59:03.648Z,68.63
2022-10-23T02:01:33.236Z,62.27
2022-10-23T02:04:03.376Z,70.10
2022-10-23T02:06:30.791Z,67.60
2022-10-23T02:08:58.376Z,69.57
2022-10-23T02:11:25.694Z,77.00
2022-10-23T02:14:20.526Z,75.47
2022-10-23T02:16:59.420Z,73.77
2022-10-23T02:19:33.398Z,68.17
2022-10-23T02:22:40.494Z,75.73
2022-10-23T02:25:15.523Z,78.27
2022-10-23T02:27:47.219Z,65.82
2022-10-23T02:30:18.237Z,68.70
2022-10-23T02:32:49.087Z,72.27
2022-10-23T02:35:17.877Z,65.80
2022-10-23T02:37:52.202Z,64.87
2022-10-23T02:40:19.717Z,78.47
2022-10-23T02:42:57.106Z,75.30
2022-10-23T02:45:33.716Z,71.30
2022-10-23T02:48:23.984Z,71.80
2022-10-23T02:51:15.505Z,70.30
2022-10-23T02:54:09.311Z,68.20
2022-10-23T02:57:00.310Z,64.40
2022-10-23T02:59:43.120Z,64.80
2022-10-23T03:02:21.029Z,56.40
2022-10-23T03:04:48.956Z,55.00
2022-10-23T03:07:16.420Z,58.13
2022-10-23T03:09:43.825Z,57.27
2022-10-23T03:12:11.220Z,49.93
2022-10-23T03:14:38.557Z,54.63
2022-10-23T03:17:07.803Z,55.30
2022-10-23T03:19:35.260Z,49.67
2022-10-23T03:22:02.695Z,52.13
2022-10-23T03:24:30.100Z,50.67
2022-10-23T03:26:57.570Z,48.33
2022-10-23T03:29:25.063Z,55.97
2022-10-23T03:31:55.195Z,47.33
2022-10-23T03:34:22.732Z,48.10
2022-10-23T03:36:50.137Z,45.67
2022-10-23T03:39:17.660Z,42.30
2022-10-23T03:41:45.008Z,46.30
2022-10-23T03:44:12.462Z,47.97
2022-10-23T03:46:40.761Z,44.67
2022-10-23T03:49:08.159Z,47.03
2022-10-23T03:51:35.573Z,45.47
2022-10-23T03:54:03.087Z,42.67
2022-10-23T03:56:30.459Z,42.83
2022-10-23T03:58:57.868Z,42.70
2022-10-23T04:01:25.117Z,41.63
2022-10-23T04:03:52.977Z,44.47
2022-10-23T04:06:20.374Z,35.23
2022-10-23T04:08:47.785Z,41.93
2022-10-23T04:11:15.311Z,46.83
2022-10-23T04:13:42.799Z,40.50
2022-10-23T04:16:10.151Z,40.10
2022-10-23T04:18:37.490Z,42.57
2022-10-23T04:21:04.877Z,44.53
2022-10-23T04:23:32.272Z,44.97
2022-10-23T04:25:59.724Z,46.27
2022-10-23T04:28:27.331Z,45.70
2022-10-23T04:30:55.051Z,38.53
2022-10-23T04:33:22.579Z,47.77
2022-10-23T04:35:50.095Z,40.70
2022-10-23T04:38:17.459Z,43.33
2022-10-23T04:40:45.000Z,39.77
2022-10-23T04:43:12.348Z,41.47
2022-10-23T04:45:39.867Z,47.63
2022-10-23T04:48:07.349Z,35.93
2022-10-23T04:50:34.712Z,44.53
2022-10-23T04:53:02.057Z,49.77
2022-10-23T04:55:29.520Z,50.67
2022-10-23T04:57:56.943Z,61.30
2022-10-23T05:00:24.473Z,57.33
2022-10-23T05:02:55.551Z,50.83
2022-10-23T05:05:22.911Z,55.13
2022-10-23T05:07:50.372Z,57.77
2022-10-23T05:10:17.842Z,45.03
2022-10-23T05:12:45.033Z,55.80
2022-10-23T05:15:12.559Z,41.93
2022-10-23T05:17:43.179Z,53.43
2022-10-23T05:20:15.723Z,56.57
2022-10-23T05:22:46.806Z,48.70
2022-10-23T05:25:15.947Z,53.50
2022-10-23T05:27:43.614Z,62.87
2022-10-23T05:30:14.387Z,57.50
2022-10-23T05:32:42.198Z,53.90
2022-10-23T05:35:14.257Z,66.90
2022-10-23T05:37:44.091Z,42.80
2022-10-23T05:40:12.105Z,47.23
2022-10-23T05:42:41.556Z,51.67
2022-10-23T05:45:09.731Z,51.20
2022-10-23T05:47:40.818Z,66.37
2022-10-23T05:50:08.364Z,45.10
2022-10-23T05:52:35.737Z,51.43
2022-10-23T05:55:03.281Z,53.83
2022-10-23T05:57:33.929Z,43.27
2022-10-23T06:00:01.526Z,52.37
2022-10-23T06:02:29.097Z,51.93
2022-10-23T06:04:56.542Z,53.17
2022-10-23T06:07:30.115Z,53.47
2022-10-23T06:10:00.196Z,58.30
2022-10-23T06:12:27.660Z,62.30
2022-10-23T06:14:55.168Z,61.67
2022-10-23T06:17:23.049Z,56.70
2022-10-23T06:19:50.589Z,61.13
2022-10-23T06:22:18.047Z,53.27
2022-10-23T06:24:48.200Z,52.87
2022-10-23T06:27:15.705Z,54.83
2022-10-23T06:29:43.412Z,52.20
2022-10-23T06:32:11.055Z,52.37
2022-10-23T06:34:39.618Z,48.07
2022-10-23T06:37:07.054Z,75.20
2022-10-23T06:39:36.183Z,64.07
2022-10-23T06:42:04.135Z,55.77
2022-10-23T06:44:31.774Z,59.93
2022-10-23T06:47:00.866Z,60.63
2022-10-23T06:49:28.491Z,58.03
2022-10-23T06:51:56.098Z,62.73
2022-10-23T06:54:23.772Z,59.53
2022-10-23T06:56:51.800Z,62.90
2022-10-23T06:59:20.011Z,63.37
2022-10-23T07:01:48.208Z,62.50
2022-10-23T07:04:15.894Z,60.43
2022-10-23T07:06:46.312Z,54.40
2022-10-23T07:09:13.818Z,52.33
2022-10-23T07:11:41.418Z,51.17
2022-10-23T07:14:09.001Z,56.53
2022-10-23T07:16:36.396Z,55.87
2022-10-23T07:19:03.988Z,54.03
2022-10-23T07:21:34.786Z,52.30
2022-10-23T07:24:02.857Z,51.07
2022-10-23T07:26:30.500Z,51.00
2022-10-23T07:28:58.198Z,45.17
2022-10-23T07:31:28.177Z,52.63
2022-10-23T07:33:56.212Z,51.23
2022-10-23T07:36:23.998Z,50.13
2022-10-23T07:38:52.164Z,45.30
2022-10-23T07:41:19.966Z,44.93
2022-10-23T07:43:47.481Z,48.50
2022-10-23T07:46:15.043Z,47.13
2022-10-23T07:48:42.533Z,43.30
2022-10-23T07:51:14.141Z,45.83
2022-10-23T07:53:44.179Z,43.17
2022-10-23T07:56:37.074Z,48.53
2022-10-23T07:59:19.452Z,46.83
2022-10-23T08:01:55.073Z,48.10
2022-10-23T08:04:37.237Z,52.63
2022-10-23T08:08:07.557Z,52.33
2022-10-23T08:10:47.644Z,41.23
2022-10-23T08:13:15.262Z,56.63
2022-10-23T08:15:53.664Z,57.90
2022-10-23T08:18:55.037Z,56.77
2022-10-23T08:21:25.715Z,59.00
2022-10-23T08:23:55.500Z,46.47
2022-10-23T08:26:27.309Z,51.87
2022-10-23T08:28:55.023Z,49.27
2022-10-23T08:31:26.340Z,42.03
2022-10-23T08:33:59.332Z,27.20
2022-10-23T08:36:38.895Z,27.63
2022-10-23T08:39:07.488Z,28.20
2022-10-23T08:41:40.077Z,24.40
2022-10-23T08:44:39.887Z,21.93
2022-10-23T08:47:15.960Z,23.17
2022-10-23T08:50:06.973Z,18.10
2022-10-23T08:53:17.216Z,20.77
2022-10-23T08:55:49.954Z,19.17
2022-10-23T08:58:32.110Z,21.20
2022-10-23T09:00:59.895Z,14.10
2022-10-23T09:03:27.744Z,12.67
2022-10-23T09:06:15.796Z,12.17
2022-10-23T09:09:22.708Z,13.30
2022-10-23T09:12:14.092Z,14.83
2022-10-23T09:15:14.534Z,11.87
2022-10-23T09:17:43.938Z,15.27
2022-10-23T09:20:34.411Z,17.47
2022-10-23T09:23:07.985Z,18.13
2022-10-23T09:25:39.826Z,14.57
2022-10-23T09:28:07.619Z,13.50
2022-10-23T09:30:43.432Z,14.57
2022-10-23T09:33:18.482Z,15.60
2022-10-23T09:36:06.911Z,15.25
2022-10-23T09:38:54.913Z,15.30
2022-10-23T09:41:39.237Z,10.67
2022-10-23T09:44:28.092Z,13.03
2022-10-23T09:47:18.612Z,13.40
2022-10-23T09:49:49.881Z,14.43
2022-10-23T09:52:37.891Z,17.40
2022-10-23T09:55:21.543Z,20.03
2022-10-23T09:57:48.997Z,15.20
2022-10-23T10:00:46.774Z,11.30
2022-10-23T10:03:23.905Z,16.13
2022-10-23T10:05:58.521Z,13.50
2022-10-23T10:08:50.194Z,14.23
2022-10-23T10:11:42.805Z,15.40
2022-10-23T10:14:36.186Z,18.53
2022-10-23T10:17:27.411Z,14.27
2022-10-23T10:20:34.368Z,13.23
2022-10-23T10:23:41.279Z,11.20
2022-10-23T10:26:48.093Z,13.07
2022-10-23T10:29:47.133Z,12.33
2022-10-23T10:32:38.073Z,12.47
2022-10-23T10:35:38.390Z,9.93
2022-10-23T10:38:45.440Z,9.50
2022-10-23T10:41:37.810Z,9.63
2022-10-23T10:44:34.775Z,10.00
2022-10-23T10:47:30.368Z,8.63
2022-10-23T10:50:28.885Z,10.02
2022-10-23T10:53:35.679Z,11.67
2022-10-23T10:56:03.992Z,12.80
2022-10-23T10:58:58.835Z,18.90
2022-10-23T11:01:49.930Z,12.17
2022-10-23T11:04:44.838Z,11.87
2022-10-23T11:07:15.381Z,9.50
2022-10-23T11:09:43.674Z,10.83
2022-10-23T11:12:28.404Z,11.17
2022-10-23T11:14:56.783Z,9.93
2022-10-23T11:17:34.647Z,9.33
2022-10-23T11:20:40.867Z,11.17
2022-10-23T11:23:43.350Z,12.82
2022-10-23T11:26:52.072Z,11.33
2022-10-23T11:29:58.964Z,8.00
2022-10-23T11:33:09.324Z,9.57
2022-10-23T11:36:16.365Z,13.30
2022-10-23T11:38:48.839Z,11.83
2022-10-23T11:41:25.653Z,8.70
2022-10-23T11:44:15.213Z,7.87
2022-10-23T11:46:42.844Z,9.07
2022-10-23T11:49:21.491Z,9.97
2022-10-23T11:51:48.985Z,9.43
2022-10-23T11:54:36.014Z,7.47
2022-10-23T11:57:13.494Z,8.33
2022-10-23T11:59:53.646Z,8.17
2022-10-23T12:02:44.926Z,7.63
2022-10-23T12:05:58.194Z,8.93
2022-10-23T12:08:28.503Z,8.13
2022-10-23T12:10:56.350Z,8.73
2022-10-23T12:13:45.532Z,9.53
2022-10-23T12:16:16.093Z,10.03
2022-10-23T12:18:52.116Z,8.30
2022-10-23T12:21:24.344Z,7.47
2022-10-23T12:24:39.737Z,8.27
2022-10-23T12:27:33.115Z,10.17
2022-10-23T12:30:25.597Z,10.03
2022-10-23T12:33:32.542Z,12.00
2022-10-23T12:36:43.591Z,10.37
2022-10-23T12:39:28.275Z,8.33
2022-10-23T12:41:56.032Z,10.27
2022-10-23T12:44:25.501Z,7.33
2022-10-23T12:46:57.433Z,5.97
2022-10-23T12:49:27.340Z,12.23
2022-10-23T12:52:30.175Z,12.23
2022-10-23T12:55:00.797Z,11.00
2022-10-23T12:57:30.444Z,9.80
2022-10-23T13:00:10.447Z,10.47
2022-10-23T13:02:38.052Z,9.17
2022-10-23T13:05:11.187Z,12.13
2022-10-23T13:07:44.707Z,7.83
2022-10-23T13:10:15.604Z,7.63
2022-10-23T13:12:47.508Z,15.70
2022-10-23T13:15:36.200Z,8.40
2022-10-23T13:18:04.925Z,8.90
2022-10-23T13:20:35.617Z,9.90
2022-10-23T13:23:33.164Z,11.47
2022-10-23T13:26:24.647Z,11.37
2022-10-23T13:28:52.030Z,7.10
2022-10-23T13:31:38.962Z,12.37
2022-10-23T13:34:16.339Z,8.87
2022-10-23T13:36:56.386Z,12.63
2022-10-23T13:39:27.495Z,13.27
2022-10-23T13:41:55.030Z,9.63
2022-10-23T13:44:24.086Z,9.13
2022-10-23T13:46:52.315Z,6.37
2022-10-23T13:49:20.149Z,10.03
2022-10-23T13:55:33.687Z,9.83
2022-10-23T13:58:01.109Z,12.57
2022-10-23T14:00:28.824Z,9.23
2022-10-23T14:02:56.229Z,9.77
2022-10-23T14:05:23.722Z,13.50
2022-10-23T14:07:51.088Z,10.77
2022-10-23T14:10:18.539Z,10.00
2022-10-23T14:12:46.176Z,10.60
2022-10-23T14:15:13.835Z,8.13
2022-10-23T14:17:41.219Z,8.47
2022-10-23T14:20:09.473Z,8.13
2022-10-23T14:22:37.256Z,10.07
2022-10-23T14:25:05.551Z,8.80
2022-10-23T14:27:33.100Z,10.50
2022-10-23T14:30:00.845Z,8.10
2022-10-23T14:32:28.399Z,14.10
2022-10-23T14:34:56.068Z,8.53
2022-10-23T14:37:23.805Z,9.17
2022-10-23T14:39:51.289Z,8.30
2022-10-23T14:42:18.979Z,10.37
2022-10-23T14:44:46.307Z,8.93
2022-10-23T14:47:13.724Z,7.73
2022-10-23T14:49:41.430Z,9.50
2022-10-23T14:52:08.819Z,4.53
2022-10-23T14:54:36.619Z,6.63
2022-10-23T14:57:04.192Z,5.90
2022-10-23T14:59:31.589Z,8.40
2022-10-23T15:01:58.987Z,12.77
2022-10-23T15:04:26.286Z,13.67
2022-10-23T15:06:53.618Z,8.63
2022-10-23T15:09:20.964Z,8.43
2022-10-23T15:11:48.616Z,9.03
2022-10-23T15:14:15.962Z,8.30
2022-10-23T15:16:43.313Z,11.57
2022-10-23T15:19:15.403Z,9.27
2022-10-23T15:21:45.779Z,12.00
2022-10-23T15:24:13.172Z,10.50
2022-10-23T15:26:43.036Z,10.93
2022-10-23T15:29:11.294Z,11.63
2022-10-23T15:31:58.747Z,14.23
2022-10-23T15:34:27.988Z,12.73
2022-10-23T15:36:56.865Z,17.87
2022-10-23T15:39:26.939Z,19.93
2022-10-23T15:41:56.884Z,18.93
2022-10-23T15:44:26.400Z,20.83
2022-10-23T15:46:53.787Z,14.37
2022-10-23T15:49:21.186Z,14.83
2022-10-23T15:51:48.756Z,15.57
2022-10-23T15:54:19.196Z,16.13
2022-10-23T15:56:48.095Z,14.70
2022-10-23T15:59:15.735Z,15.70
2022-10-23T16:01:43.320Z,20.10
2022-10-23T16:04:11.399Z,13.80
2022-10-23T16:06:39.048Z,21.50
2022-10-23T16:09:06.492Z,17.23
2022-10-23T16:11:36.291Z,18.63
2022-10-23T16:14:04.347Z,19.13
2022-10-23T16:16:33.007Z,22.00
2022-10-23T16:19:01.851Z,18.63
2022-10-23T16:21:31.989Z,19.77
2022-10-23T16:24:00.556Z,23.80
2022-10-23T16:26:29.305Z,21.97
2022-10-23T16:28:58.417Z,21.73
2022-10-23T16:31:26.286Z,26.03
2022-10-23T16:33:54.393Z,22.53
2022-10-23T16:36:22.015Z,25.23
2022-10-23T16:38:49.441Z,26.57
2022-10-23T16:41:16.815Z,40.30
2022-10-23T16:43:44.215Z,29.37
2022-10-23T16:46:14.570Z,21.03
2022-10-23T16:48:42.247Z,24.63
2022-10-23T16:51:12.534Z,26.17
2022-10-23T16:53:40.077Z,36.40
2022-10-23T16:56:09.206Z,56.87
2022-10-23T16:58:38.292Z,53.13
2022-10-23T17:01:09.797Z,50.73
2022-10-23T17:03:48.677Z,50.60
2022-10-23T17:06:18.908Z,57.00
2022-10-23T17:08:46.715Z,55.10
2022-10-23T17:11:19.286Z,56.93
2022-10-23T17:13:55.699Z,67.27
2022-10-23T17:16:35.139Z,63.53
2022-10-23T17:19:08.397Z,67.87
2022-10-23T17:21:40.773Z,65.70
2022-10-23T17:24:09.836Z,69.60
2022-10-23T17:26:37.929Z,61.57
2022-10-23T17:29:08.922Z,59.97
2022-10-23T17:31:41.731Z,56.93
2022-10-23T17:34:12.022Z,46.83
2022-10-23T17:36:43.334Z,58.30
2022-10-23T17:39:56.427Z,60.70
2022-10-23T17:45:52.435Z,65.90
2022-10-23T17:49:19.778Z,63.40
2022-10-23T17:56:33.429Z,55.20
2022-10-23T18:05:52.627Z,122.93
2022-10-23T18:10:41.869Z,159.10
2022-10-23T18:12:09.105Z,144.53
2022-10-23T18:14:38.841Z,170.10
2022-10-23T18:17:06.514Z,146.67
2022-10-23T18:19:34.293Z,142.03
2022-10-23T18:22:01.748Z,124.90
2022-10-23T18:24:31.896Z,103.27
2022-10-23T18:26:59.460Z,105.07
2022-10-23T18:33:47.141Z,80.40
2022-10-23T19:16:01.591Z,84.97
2022-10-23T19:23:49.080Z,79.20
2022-10-23T19:36:23.490Z,84.30
2022-10-23T19:48:09.355Z,78.40
2022-10-23T19:54:27.232Z,65.53
2022-10-23T19:57:07.454Z,76.87
2022-10-23T20:00:43.963Z,77.47
2022-10-23T20:03:55.945Z,69.97
2022-10-23T20:07:03.409Z,122.43
2022-10-23T20:10:12.648Z,70.30
2022-10-23T20:16:37.414Z,69.87
2022-10-23T20:19:30.829Z,177.20
2022-10-23T20:21:58.468Z,77.67
2022-10-23T20:24:28.970Z,72.50
2022-10-23T20:26:56.946Z,88.27
2022-10-23T20:29:25.132Z,81.00
2022-10-23T20:31:53.055Z,95.03
2022-10-23T20:34:23.962Z,86.03
2022-10-23T20:36:56.149Z,93.23
2022-10-23T20:39:29.869Z,145.80
2022-10-23T20:42:03.812Z,165.93
2022-10-23T20:44:31.801Z,266.00
2022-10-23T20:46:59.709Z,147.60
2022-10-23T20:49:28.567Z,119.70
2022-10-23T20:52:00.635Z,139.17
2022-10-23T20:54:31.999Z,191.80
2022-10-23T20:56:59.557Z,178.40
2022-10-23T20:59:33.966Z,108.23
2022-10-23T21:02:31.138Z,161.15
2022-10-23T21:05:09.062Z,136.03
2022-10-23T21:07:47.250Z,164.57
2022-10-23T21:10:33.140Z,104.13
2022-10-23T21:13:00.957Z,101.10
2022-10-23T21:18:57.937Z,98.80
2022-10-23T21:21:25.413Z,67.37
2022-10-23T21:23:59.749Z,77.33
2022-10-23T21:26:33.205Z,69.43
2022-10-23T21:29:17.895Z,73.90
2022-10-23T21:31:45.835Z,67.50
2022-10-23T21:34:19.138Z,62.00
2022-10-23T21:37:11.318Z,62.27
2022-10-23T21:40:07.256Z,56.90
2022-10-23T21:42:51.219Z,61.97
2022-10-23T21:45:18.841Z,66.13
2022-10-23T21:47:49.125Z,73.23
2022-10-23T21:50:16.907Z,69.53
2022-10-23T21:52:44.806Z,78.90
2022-10-23T21:55:12.750Z,67.73
2022-10-23T21:57:40.463Z,70.80
2022-10-23T22:00:13.665Z,58.83
2022-10-23T22:10:41.734Z,56.90
2022-10-23T22:13:32.593Z,63.00
2022-10-23T22:16:17.092Z,67.97
2022-10-23T22:19:22.311Z,60.63
2022-10-23T22:22:40.585Z,59.87
2022-10-23T22:25:34.913Z,56.97
2022-10-23T22:31:49.844Z,58.80
2022-10-23T22:34:47.745Z,56.70
2022-10-23T22:37:48.837Z,50.33
2022-10-23T22:44:33.547Z,54.57
2022-10-23T22:51:25.467Z,53.07
2022-10-23T22:54:44.842Z,56.60
2022-10-23T23:01:10.623Z,71.93
2022-10-23T23:03:43.993Z,53.63
2022-10-23T23:06:38.307Z,76.63
2022-10-23T23:09:06.237Z,69.67
2022-10-23T23:11:51.224Z,61.00
2022-10-23T23:14:24.806Z,58.33
2022-10-23T23:16:55.457Z,69.70
2022-10-23T23:19:23.421Z,61.20
2022-10-23T23:21:51.282Z,55.33
2022-10-23T23:24:21.252Z,48.70
2022-10-23T23:26:52.830Z,56.90
2022-10-23T23:29:39.561Z,57.07
2022-10-23T23:32:07.291Z,50.43
2022-10-23T23:34:36.420Z,51.97
2022-10-23T23:37:04.219Z,56.43
2022-10-23T23:39:36.745Z,63.33
2022-10-23T23:42:04.294Z,62.00
2022-10-23T23:44:31.825Z,282.97
2022-10-23T23:46:59.669Z,49.73
2022-10-23T23:49:27.694Z,76.57
2022-10-23T23:52:03.575Z,56.13
2022-10-23T23:54:38.900Z,47.13
2022-10-23T23:59:43.216Z,61.87
